Dayton, OH

7:55 AM EDT on July 29, 2016 (GMT -0400)
Kettering - Central | | Change Station
Active Advisory: Special Statement Active Notice: Record Report

Elev 1004 ft 39.69 °N, 84.15 °W | Updated 2 seconds ago

Clear
Clear
75.0 °F
Feels Like 75.0 °F
N
0.0
Wind Variable Wind from WSW
Gusts 0.0 mph

Today
High -- | Low -- °F
--% Chance of Precip.
Yesterday
High -- | Low -- °F
Precip. -- in
Pressure 29.93 in
Visibility 6.0 miles
Clouds Clear
Dew Point Not available.
Humidity Not available.
Rainfall Not available.
Snow Depth Not available.
6:33 AM 8:52 PM
Waning Crescent, 22% visible
METAR KMGY 291153Z AUTO 22004KT 6SM BR CLR 22/20 A2995 RMK AO2 SLP133 70006 T02170200 10228 20200 53012
Pressure 29.93 in
Visibility 6.0 miles
Clouds Clear
Dew Point Not available.
Humidity Not available.
Rainfall Not available.
Snow Depth Not available.
6:33 AM 8:52 PM
Waning Crescent, 22% visible
METAR KMGY 291153Z AUTO 22004KT 6SM BR CLR 22/20 A2995 RMK AO2 SLP133 70006 T02170200 10228 20200 53012

10-Day Weather Forecast

Almanac

Astronomy

Jul. 29, 2016 Rise Set
Actual Time
Civil Twilight
Nautical Twilight
Astronomical Twilight
Moon
Length of Visible Light
Length of Day
Tomorrow will be .
, % of the Moon is Illuminated

Today's Extremes

State Highs State Lows

Community

WunderPhotos

Upload Photos

1,928,325 photos uploaded!

WunderBlog® & News

Nearby

Air Quality

  Air Quality AQ Index Pollutant
Not available.

Snow Depth

Station Depth Elevation

Earthquake Activity

City Distance Mag. Time & Date
Minimum magnitude displayed is 2.5.

Coastal Water Temperatures

Place Temperature

Stations

Nearby Weather Stations

Station Location Temp. Windchill Dew Point Humidity Wind Precip. Elev Updated Type
                   

Watches & Warnings

Special Statement
Issued: 4:48 AM EDT Jul. 29, 2016 – National Weather Service

... Patchy dense fog expected this morning...

Areas of fog will persist through mid morning. Some of the fog
will be locally dense... reducing visibilities to below a quarter
of a mile at times.

If traveling this morning, slow down and use extra caution if you
encounter reduced visibilities.



448 am EDT Fri Jul 29 2016

... Patchy dense fog expected this morning...

Areas of fog will persist through mid morning. Some of the fog
will be locally dense... reducing visibilities to below a quarter
of a mile at times.

If traveling this morning, slow down and use extra caution if you
encounter reduced visibilities.


448 am EDT Fri Jul 29 2016

... Patchy dense fog expected this morning...

Areas of fog will persist through mid morning. Some of the fog
will be locally dense... reducing visibilities to below a quarter
of a mile at times.

If traveling this morning, slow down and use extra caution if you
encounter reduced visibilities.